createdAt,value
2019-03-01T00:01:26.581Z,50.98
2019-03-01T00:07:21.594Z,53.79
2019-03-01T00:13:16.590Z,48.7
2019-03-01T00:19:11.564Z,51.06
2019-03-01T00:25:06.571Z,46.92
2019-03-01T00:31:01.566Z,41.53
2019-03-01T00:36:56.567Z,49.76
2019-03-01T00:42:51.547Z,39.76
2019-03-01T00:49:07.750Z,59.82
2019-03-01T00:54:41.552Z,45.04
2019-03-01T01:00:36.541Z,30.85
2019-03-01T01:06:31.565Z,43.19
2019-03-01T01:12:26.573Z,44.35
2019-03-01T01:18:21.583Z,37.14
2019-03-01T01:24:16.551Z,34.67
2019-03-01T01:30:11.581Z,35.51
2019-03-01T01:36:06.571Z,38.97
2019-03-01T01:42:01.576Z,32.8
2019-03-01T01:47:56.595Z,34.31
2019-03-01T01:53:51.570Z,38.94
2019-03-01T01:59:46.589Z,27.57
2019-03-01T02:05:41.586Z,30.47
2019-03-01T02:11:36.603Z,33.65
2019-03-01T02:17:31.576Z,32.74
2019-03-01T02:23:26.646Z,30.7
2019-03-01T02:29:21.578Z,30
2019-03-01T02:35:16.611Z,30.64
2019-03-01T02:41:11.578Z,31.96
2019-03-01T02:47:06.576Z,29.8
2019-03-01T02:53:01.586Z,28.56
2019-03-01T02:58:56.590Z,28.53
2019-03-01T03:04:51.609Z,37.15
2019-03-01T03:10:46.588Z,35.92
2019-03-01T03:16:41.599Z,37.6
2019-03-01T03:22:36.623Z,33.94
2019-03-01T03:28:31.606Z,36.59
2019-03-01T03:34:26.606Z,30.22
2019-03-01T03:40:21.583Z,25.79
2019-03-01T03:46:16.589Z,26.02
2019-03-01T03:52:11.582Z,35.6
2019-03-01T03:58:06.656Z,33.02
2019-03-01T04:04:01.587Z,28.64
2019-03-01T04:09:56.607Z,30.04
2019-03-01T04:15:51.662Z,41.06
2019-03-01T04:21:46.597Z,42.67
2019-03-01T04:27:41.689Z,42.16
2019-03-01T04:33:36.584Z,43.33
2019-03-01T04:39:31.597Z,34.88
2019-03-01T04:45:26.595Z,41.68
2019-03-01T04:51:21.597Z,35.41
2019-03-01T04:57:16.608Z,38.28
2019-03-01T05:03:11.693Z,38.39
2019-03-01T05:09:06.651Z,47.32
2019-03-01T05:15:01.600Z,35.72
2019-03-01T05:20:56.689Z,55.98
2019-03-01T05:26:51.636Z,35.71
2019-03-01T05:32:46.635Z,36.67
2019-03-01T05:38:41.674Z,53.42
2019-03-01T05:44:36.609Z,44.4
2019-03-01T05:50:31.615Z,112.08
2019-03-01T05:56:26.631Z,48.1
2019-03-01T06:02:21.613Z,34.15
2019-03-01T06:08:16.616Z,33.22
2019-03-01T06:14:11.620Z,26.81
2019-03-01T06:20:06.652Z,42.28
2019-03-01T06:26:01.598Z,29.05
2019-03-01T06:31:56.631Z,27.37
2019-03-01T06:37:51.634Z,34.47
2019-03-01T06:43:46.646Z,30.58
2019-03-01T06:49:41.637Z,38.14
2019-03-01T06:55:36.624Z,29.04
2019-03-01T07:01:31.631Z,31.93
2019-03-01T07:07:26.643Z,53.19
2019-03-01T07:13:21.635Z,44.72
2019-03-01T07:19:16.645Z,39.72
2019-03-01T07:25:11.638Z,45.25
2019-03-01T07:31:07.131Z,40.29
2019-03-01T07:37:01.649Z,34.72
2019-03-01T07:42:56.685Z,36.81
2019-03-01T07:48:51.634Z,36.3
2019-03-01T07:54:49.367Z,40.15
2019-03-01T08:00:41.628Z,39.95
2019-03-01T08:06:36.645Z,43.52
2019-03-01T08:12:31.653Z,37.94
2019-03-01T08:18:26.692Z,47.15
2019-03-01T08:24:21.643Z,42.14
2019-03-01T08:30:16.675Z,38.89
2019-03-01T08:36:11.725Z,33.08
2019-03-01T08:42:06.683Z,33.66
2019-03-01T08:48:01.632Z,36.33
2019-03-01T08:53:56.680Z,34.33
2019-03-01T08:59:51.650Z,35.9
2019-03-01T09:05:46.651Z,37.18
2019-03-01T09:11:44.519Z,37.93
2019-03-01T09:17:36.655Z,41.72
2019-03-01T09:23:31.688Z,32.32
2019-03-01T09:29:26.666Z,37.98
2019-03-01T09:35:21.651Z,36.33
2019-03-01T09:41:16.713Z,34.3
2019-03-01T09:47:11.646Z,55.71
2019-03-01T09:53:06.684Z,49.76
2019-03-01T09:59:01.673Z,44.8
2019-03-01T10:04:56.692Z,39.01
2019-03-01T10:10:51.787Z,33.4
2019-03-01T10:16:46.783Z,34.2
2019-03-01T10:22:41.688Z,38.8
2019-03-01T10:28:36.667Z,37.29
2019-03-01T10:34:31.683Z,48.47
2019-03-01T10:40:26.692Z,39.38
2019-03-01T10:46:21.697Z,39.06
2019-03-01T10:52:16.716Z,42.5
2019-03-01T10:58:11.689Z,31.73
2019-03-01T11:04:06.711Z,28.78
2019-03-01T11:10:01.703Z,29
2019-03-01T11:15:56.710Z,30.85
2019-03-01T11:21:51.682Z,31.27
2019-03-01T11:27:46.797Z,28.7
2019-03-01T11:33:41.701Z,28.84
2019-03-01T11:39:36.711Z,30.86
2019-03-01T11:45:31.757Z,32.85
2019-03-01T11:51:27.805Z,31.17
2019-03-01T11:57:21.770Z,28.58
2019-03-01T12:03:16.716Z,29.18
2019-03-01T12:09:11.719Z,31.21
2019-03-01T12:15:06.723Z,28.37
2019-03-01T12:21:01.719Z,23.17
2019-03-01T12:26:56.778Z,27.34
2019-03-01T12:32:51.748Z,25.62
2019-03-01T12:38:46.838Z,26.42
2019-03-01T12:44:41.716Z,31.32
2019-03-01T12:50:36.740Z,25.62
2019-03-01T12:56:31.761Z,29.45
2019-03-01T13:02:26.779Z,23.13
2019-03-01T13:08:21.733Z,27.62
2019-03-01T13:14:16.727Z,24.5
2019-03-01T13:20:11.748Z,24.49
2019-03-01T13:26:07.003Z,25.07
2019-03-01T13:32:01.794Z,29.59
2019-03-01T13:37:56.897Z,25.97
2019-03-01T13:43:51.744Z,23.5
2019-03-01T13:49:46.773Z,26.43
2019-03-01T13:55:41.786Z,37.1
2019-03-01T14:01:36.754Z,33.64
2019-03-01T14:07:31.762Z,26.53
2019-03-01T14:13:26.768Z,32.2
2019-03-01T14:19:21.796Z,29.67
2019-03-01T14:25:16.773Z,30.18
2019-03-01T14:31:12.278Z,32.01
2019-03-01T14:37:06.829Z,29.39
2019-03-01T14:43:01.769Z,25.95
2019-03-01T14:48:56.787Z,34.54
2019-03-01T14:54:51.756Z,31.1
2019-03-01T15:00:50.693Z,23.72
2019-03-01T15:06:41.757Z,25.43
2019-03-01T15:12:36.803Z,32.55
2019-03-01T15:18:32.236Z,23.27
2019-03-01T15:24:26.767Z,22.97
2019-03-01T15:30:23.149Z,36.44
2019-03-01T15:36:17.679Z,25.9
2019-03-01T15:42:14.234Z,22.88
2019-03-01T15:48:06.817Z,24.08
2019-03-01T15:54:01.969Z,26.44
2019-03-01T15:59:56.850Z,36.21
2019-03-01T16:05:51.866Z,46.31
2019-03-01T16:11:46.805Z,31.34
2019-03-01T16:17:41.842Z,39.01
2019-03-01T16:23:36.801Z,30.65
2019-03-01T16:29:31.785Z,30.92
2019-03-01T16:35:26.854Z,31.03
2019-03-01T16:41:21.813Z,26.45
2019-03-01T16:47:16.798Z,27.74
2019-03-01T16:53:11.829Z,28.75
2019-03-01T16:59:07.255Z,29.03
2019-03-01T17:05:03.596Z,28.76
2019-03-01T17:10:56.827Z,26.57
2019-03-01T17:16:51.806Z,28.43
2019-03-01T17:22:46.819Z,46.5
2019-03-01T17:28:41.806Z,47.1
2019-03-01T17:34:36.848Z,36.37
2019-03-01T17:40:32.343Z,50.75
2019-03-01T17:46:29.723Z,51.08
2019-03-01T17:52:21.829Z,46.6
2019-03-01T17:58:16.845Z,44.87
2019-03-01T18:04:11.882Z,56.6
2019-03-01T18:10:06.826Z,48.73
2019-03-01T18:16:01.872Z,65.55
2019-03-01T18:21:56.843Z,52.51
2019-03-01T18:27:52.885Z,38.92
2019-03-01T18:33:46.851Z,82.41
2019-03-01T18:39:42.239Z,43.19
2019-03-01T18:45:38.407Z,57.67
2019-03-01T18:51:31.845Z,67.8
2019-03-01T18:57:26.840Z,62.39
2019-03-01T19:03:21.904Z,76.3
2019-03-01T19:09:17.460Z,56.06
2019-03-01T19:15:12.074Z,55.42
2019-03-01T19:21:06.892Z,87.33
2019-03-01T19:27:01.866Z,117.88
2019-03-01T19:32:58.808Z,66.72
2019-03-01T19:38:51.879Z,65.96
2019-03-01T19:44:46.841Z,68.13
2019-03-01T19:50:43.470Z,56.96
2019-03-01T19:56:36.902Z,49.29
2019-03-01T20:02:31.905Z,74.21
2019-03-01T20:08:29.584Z,51.61
2019-03-01T20:14:21.880Z,48.58
2019-03-01T20:20:16.869Z,60.02
2019-03-01T20:26:11.871Z,45.76
2019-03-01T20:32:06.936Z,56.95
2019-03-01T20:38:04.186Z,57.89
2019-03-01T20:43:56.931Z,62.67
2019-03-01T20:49:51.875Z,50.07
2019-03-01T20:55:47.082Z,77.3
2019-03-01T21:01:41.873Z,59.67
2019-03-01T21:07:36.904Z,48.95
2019-03-01T21:13:31.877Z,52.81
2019-03-01T21:19:26.885Z,49.3
2019-03-01T21:25:21.881Z,52.51
2019-03-01T21:31:16.890Z,47.87
2019-03-01T21:37:11.881Z,43.01
2019-03-01T21:43:06.873Z,35.86
2019-03-01T21:49:01.891Z,50.45
2019-03-01T21:54:56.902Z,53.24
2019-03-01T22:00:51.893Z,45.38
2019-03-01T22:06:46.875Z,42.91
2019-03-01T22:12:41.912Z,39.77
2019-03-01T22:18:36.884Z,37.84
2019-03-01T22:24:31.880Z,47.79
2019-03-01T22:30:26.892Z,50.43
2019-03-01T22:36:21.893Z,40.33
2019-03-01T22:42:16.876Z,43.42
2019-03-01T22:48:12.452Z,41.13
2019-03-01T22:54:06.898Z,35.7
2019-03-01T23:00:02.122Z,44.28
2019-03-01T23:05:56.923Z,44.68
2019-03-01T23:11:51.886Z,50.86
2019-03-01T23:17:46.917Z,42.11
2019-03-01T23:23:46.031Z,37.3
2019-03-01T23:29:36.926Z,40.43
2019-03-01T23:35:31.888Z,40.84
2019-03-01T23:41:26.911Z,42.87
2019-03-01T23:47:21.925Z,42.42
2019-03-01T23:53:16.895Z,47.08
2019-03-01T23:59:11.909Z,43.16
